sensor_id;sensor_type;location;lat;lon;timestamp;P1;durP1;ratioP1;P2;durP2;ratioP2
10440;SDS011;5268;49.346;9.522;2023-04-25T03:09:54;5.10;;;4.60;;
10440;SDS011;5268;49.346;9.522;2023-04-25T03:14:56;5.43;;;4.93;;
10440;SDS011;5268;49.346;9.522;2023-04-25T03:19:59;7.45;;;4.85;;
10440;SDS011;5268;49.346;9.522;2023-04-25T03:25:02;5.97;;;4.70;;
10440;SDS011;5268;49.346;9.522;2023-04-25T03:30:05;6.07;;;4.97;;
10440;SDS011;5268;49.346;9.522;2023-04-25T03:35:08;5.80;;;4.72;;
10440;SDS011;5268;49.346;9.522;2023-04-25T03:40:12;5.97;;;4.90;;
10440;SDS011;5268;49.346;9.522;2023-04-25T03:45:14;6.43;;;4.97;;
10440;SDS011;5268;49.346;9.522;2023-04-25T03:50:16;7.22;;;5.80;;
10440;SDS011;5268;49.346;9.522;2023-04-25T03:55:20;6.05;;;5.40;;
10440;SDS011;5268;49.346;9.522;2023-04-25T04:00:21;5.80;;;4.93;;
10440;SDS011;5268;49.346;9.522;2023-04-25T04:05:24;6.32;;;5.35;;
10440;SDS011;5268;49.346;9.522;2023-04-25T04:10:27;7.07;;;5.60;;
10440;SDS011;5268;49.346;9.522;2023-04-25T04:15:29;7.75;;;7.05;;
10440;SDS011;5268;49.346;9.522;2023-04-25T04:20:32;9.27;;;7.97;;
10440;SDS011;5268;49.346;9.522;2023-04-25T04:25:36;6.80;;;5.93;;
10440;SDS011;5268;49.346;9.522;2023-04-25T04:30:38;6.07;;;5.47;;
10440;SDS011;5268;49.346;9.522;2023-04-25T04:35:41;7.07;;;5.88;;
10440;SDS011;5268;49.346;9.522;2023-04-25T04:40:45;6.03;;;5.43;;
10440;SDS011;5268;49.346;9.522;2023-04-25T04:45:47;7.32;;;5.70;;
10440;SDS011;5268;49.346;9.522;2023-04-25T04:50:50;7.93;;;7.13;;
10440;SDS011;5268;49.346;9.522;2023-04-25T04:55:53;7.53;;;6.18;;
10440;SDS011;5268;49.346;9.522;2023-04-25T05:00:55;6.68;;;5.97;;
10440;SDS011;5268;49.346;9.522;2023-04-25T05:05:57;8.63;;;6.60;;
10440;SDS011;5268;49.346;9.522;2023-04-25T05:11:00;7.68;;;6.20;;
10440;SDS011;5268;49.346;9.522;2023-04-25T05:16:03;8.25;;;7.45;;
10440;SDS011;5268;49.346;9.522;2023-04-25T05:21:05;8.73;;;7.60;;
10440;SDS011;5268;49.346;9.522;2023-04-25T05:26:09;7.40;;;6.45;;
10440;SDS011;5268;49.346;9.522;2023-04-25T05:31:13;6.80;;;6.07;;
10440;SDS011;5268;49.346;9.522;2023-04-25T05:36:15;7.22;;;6.53;;
10440;SDS011;5268;49.346;9.522;2023-04-25T05:41:19;8.23;;;6.38;;
10440;SDS011;5268;49.346;9.522;2023-04-25T05:46:21;7.38;;;6.55;;
10440;SDS011;5268;49.346;9.522;2023-04-25T05:51:23;7.65;;;6.82;;
10440;SDS011;5268;49.346;9.522;2023-04-25T05:56:27;7.68;;;6.55;;
10440;SDS011;5268;49.346;9.522;2023-04-25T06:01:29;7.45;;;6.45;;
10440;SDS011;5268;49.346;9.522;2023-04-25T06:06:31;8.25;;;6.72;;
10440;SDS011;5268;49.346;9.522;2023-04-25T06:11:34;8.38;;;6.88;;
10440;SDS011;5268;49.346;9.522;2023-04-25T06:16:36;8.68;;;7.78;;
10440;SDS011;5268;49.346;9.522;2023-04-25T06:21:38;8.27;;;7.35;;
10440;SDS011;5268;49.346;9.522;2023-04-25T06:26:41;8.30;;;7.25;;
10440;SDS011;5268;49.346;9.522;2023-04-25T06:31:44;9.65;;;7.57;;
10440;SDS011;5268;49.346;9.522;2023-04-25T06:36:46;9.00;;;8.07;;
10440;SDS011;5268;49.346;9.522;2023-04-25T06:41:49;11.27;;;10.18;;
10440;SDS011;5268;49.346;9.522;2023-04-25T06:46:51;8.73;;;7.88;;
10440;SDS011;5268;49.346;9.522;2023-04-25T06:51:53;9.02;;;8.05;;
10440;SDS011;5268;49.346;9.522;2023-04-25T06:56:56;8.20;;;7.03;;
10440;SDS011;5268;49.346;9.522;2023-04-25T07:01:58;8.45;;;7.65;;
10440;SDS011;5268;49.346;9.522;2023-04-25T07:07:00;9.30;;;7.65;;
10440;SDS011;5268;49.346;9.522;2023-04-25T07:12:05;8.93;;;7.75;;
10440;SDS011;5268;49.346;9.522;2023-04-25T07:17:07;7.65;;;6.63;;
10440;SDS011;5268;49.346;9.522;2023-04-25T07:22:09;8.93;;;7.00;;
10440;SDS011;5268;49.346;9.522;2023-04-25T07:27:12;8.10;;;6.90;;
10440;SDS011;5268;49.346;9.522;2023-04-25T07:32:14;7.63;;;6.80;;
10440;SDS011;5268;49.346;9.522;2023-04-25T07:37:16;7.80;;;6.88;;
10440;SDS011;5268;49.346;9.522;2023-04-25T07:42:20;7.47;;;6.03;;
10440;SDS011;5268;49.346;9.522;2023-04-25T07:47:23;6.82;;;6.03;;
10440;SDS011;5268;49.346;9.522;2023-04-25T07:52:24;7.90;;;6.82;;
10440;SDS011;5268;49.346;9.522;2023-04-25T07:57:28;7.22;;;5.90;;
10440;SDS011;5268;49.346;9.522;2023-04-25T08:02:30;6.32;;;5.60;;
10440;SDS011;5268;49.346;9.522;2023-04-25T08:07:32;6.82;;;5.28;;
10440;SDS011;5268;49.346;9.522;2023-04-25T08:12:36;8.68;;;5.32;;
10440;SDS011;5268;49.346;9.522;2023-04-25T08:17:38;7.60;;;6.05;;
10440;SDS011;5268;49.346;9.522;2023-04-25T08:22:40;8.82;;;5.90;;
10440;SDS011;5268;49.346;9.522;2023-04-25T08:27:43;7.50;;;5.55;;
10440;SDS011;5268;49.346;9.522;2023-04-25T08:32:46;10.00;;;7.25;;
10440;SDS011;5268;49.346;9.522;2023-04-25T08:37:48;6.60;;;5.90;;
10440;SDS011;5268;49.346;9.522;2023-04-25T08:42:53;7.75;;;5.70;;
10440;SDS011;5268;49.346;9.522;2023-04-25T08:47:56;7.30;;;5.00;;
10440;SDS011;5268;49.346;9.522;2023-04-25T08:52:58;6.47;;;4.93;;
10440;SDS011;5268;49.346;9.522;2023-04-25T08:58:05;6.40;;;5.30;;
10440;SDS011;5268;49.346;9.522;2023-04-25T09:03:07;5.32;;;4.70;;
10440;SDS011;5268;49.346;9.522;2023-04-25T09:08:09;8.05;;;4.20;;
10440;SDS011;5268;49.346;9.522;2023-04-25T09:13:13;6.63;;;3.97;;
10440;SDS011;5268;49.346;9.522;2023-04-25T09:18:21;6.45;;;3.65;;
10440;SDS011;5268;49.346;9.522;2023-04-25T09:23:25;3.50;;;2.70;;
10440;SDS011;5268;49.346;9.522;2023-04-25T09:28:28;4.60;;;2.70;;
10440;SDS011;5268;49.346;9.522;2023-04-25T09:33:30;4.70;;;2.50;;
10440;SDS011;5268;49.346;9.522;2023-04-25T09:38:39;4.45;;;2.40;;
10440;SDS011;5268;49.346;9.522;2023-04-25T09:43:44;3.50;;;2.60;;
10440;SDS011;5268;49.346;9.522;2023-04-25T09:48:48;3.50;;;2.30;;
10440;SDS011;5268;49.346;9.522;2023-04-25T09:53:51;4.97;;;2.65;;
10440;SDS011;5268;49.346;9.522;2023-04-25T09:58:54;5.13;;;2.50;;
10440;SDS011;5268;49.346;9.522;2023-04-25T10:03:56;4.20;;;2.90;;
10440;SDS011;5268;49.346;9.522;2023-04-25T10:09:00;3.75;;;2.53;;
10440;SDS011;5268;49.346;9.522;2023-04-25T10:14:05;6.65;;;2.85;;
10440;SDS011;5268;49.346;9.522;2023-04-25T10:19:07;3.72;;;2.47;;
10440;SDS011;5268;49.346;9.522;2023-04-25T10:24:10;4.15;;;2.80;;
10440;SDS011;5268;49.346;9.522;2023-04-25T10:29:15;6.88;;;3.25;;
10440;SDS011;5268;49.346;9.522;2023-04-25T10:34:25;4.72;;;2.95;;
10440;SDS011;5268;49.346;9.522;2023-04-25T10:39:40;6.65;;;4.45;;
10440;SDS011;5268;49.346;9.522;2023-04-25T10:45:00;4.00;;;2.75;;
10440;SDS011;5268;49.346;9.522;2023-04-25T10:50:07;3.60;;;2.67;;
10440;SDS011;5268;49.346;9.522;2023-04-25T10:55:10;3.53;;;2.65;;
10440;SDS011;5268;49.346;9.522;2023-04-25T11:00:14;4.28;;;2.35;;
10440;SDS011;5268;49.346;9.522;2023-04-25T11:05:19;3.22;;;2.60;;
10440;SDS011;5268;49.346;9.522;2023-04-25T11:10:25;3.33;;;2.40;;
10440;SDS011;5268;49.346;9.522;2023-04-25T11:15:28;4.78;;;2.72;;
10440;SDS011;5268;49.346;9.522;2023-04-25T11:20:31;5.15;;;3.58;;
10440;SDS011;5268;49.346;9.522;2023-04-25T11:25:33;3.72;;;2.60;;
10440;SDS011;5268;49.346;9.522;2023-04-25T11:30:36;4.47;;;2.50;;
10440;SDS011;5268;49.346;9.522;2023-04-25T11:35:39;4.55;;;3.63;;
10440;SDS011;5268;49.346;9.522;2023-04-25T11:40:41;4.47;;;2.83;;
10440;SDS011;5268;49.346;9.522;2023-04-25T11:45:47;3.17;;;2.65;;
10440;SDS011;5268;49.346;9.522;2023-04-25T11:50:50;3.22;;;2.38;;
10440;SDS011;5268;49.346;9.522;2023-04-25T11:55:52;3.17;;;2.30;;
10440;SDS011;5268;49.346;9.522;2023-04-25T12:00:56;3.30;;;2.50;;
10440;SDS011;5268;49.346;9.522;2023-04-25T12:06:02;5.32;;;2.80;;
10440;SDS011;5268;49.346;9.522;2023-04-25T12:11:05;3.97;;;2.70;;
10440;SDS011;5268;49.346;9.522;2023-04-25T12:16:23;3.65;;;2.60;;
10440;SDS011;5268;49.346;9.522;2023-04-25T12:21:27;3.70;;;2.45;;
10440;SDS011;5268;49.346;9.522;2023-04-25T12:26:45;4.03;;;2.47;;
10440;SDS011;5268;49.346;9.522;2023-04-25T12:31:53;5.95;;;2.90;;
10440;SDS011;5268;49.346;9.522;2023-04-25T12:36:56;4.28;;;3.10;;
10440;SDS011;5268;49.346;9.522;2023-04-25T12:41:58;4.93;;;2.90;;
10440;SDS011;5268;49.346;9.522;2023-04-25T12:47:01;3.72;;;3.00;;
10440;SDS011;5268;49.346;9.522;2023-04-25T12:52:04;4.70;;;3.28;;
10440;SDS011;5268;49.346;9.522;2023-04-25T12:57:05;6.80;;;3.53;;
10440;SDS011;5268;49.346;9.522;2023-04-25T13:02:09;4.35;;;3.22;;
10440;SDS011;5268;49.346;9.522;2023-04-25T13:07:11;4.80;;;3.20;;
10440;SDS011;5268;49.346;9.522;2023-04-25T13:12:13;3.97;;;2.67;;
10440;SDS011;5268;49.346;9.522;2023-04-25T13:17:17;3.88;;;2.70;;
10440;SDS011;5268;49.346;9.522;2023-04-25T13:22:18;5.05;;;3.03;;
10440;SDS011;5268;49.346;9.522;2023-04-25T13:27:21;4.40;;;2.72;;
10440;SDS011;5268;49.346;9.522;2023-04-25T13:32:24;4.13;;;2.70;;
10440;SDS011;5268;49.346;9.522;2023-04-25T13:37:26;3.58;;;2.50;;
10440;SDS011;5268;49.346;9.522;2023-04-25T13:42:29;3.20;;;2.20;;
10440;SDS011;5268;49.346;9.522;2023-04-25T13:47:33;3.28;;;2.40;;
10440;SDS011;5268;49.346;9.522;2023-04-25T13:52:35;4.72;;;2.80;;
10440;SDS011;5268;49.346;9.522;2023-04-25T13:57:37;5.15;;;3.00;;
10440;SDS011;5268;49.346;9.522;2023-04-25T14:02:41;4.82;;;2.28;;
10440;SDS011;5268;49.346;9.522;2023-04-25T14:07:43;3.53;;;2.20;;
10440;SDS011;5268;49.346;9.522;2023-04-25T14:12:45;3.30;;;2.42;;
10440;SDS011;5268;49.346;9.522;2023-04-25T14:17:49;4.03;;;2.60;;
10440;SDS011;5268;49.346;9.522;2023-04-25T14:22:51;2.90;;;2.38;;
10440;SDS011;5268;49.346;9.522;2023-04-25T14:27:54;3.58;;;2.28;;
10440;SDS011;5268;49.346;9.522;2023-04-25T14:32:57;3.75;;;3.15;;
10440;SDS011;5268;49.346;9.522;2023-04-25T14:37:59;4.40;;;3.17;;
10440;SDS011;5268;49.346;9.522;2023-04-25T14:43:01;4.53;;;3.20;;
10440;SDS011;5268;49.346;9.522;2023-04-25T14:48:05;6.00;;;3.40;;
10440;SDS011;5268;49.346;9.522;2023-04-25T14:53:07;5.13;;;3.60;;
10440;SDS011;5268;49.346;9.522;2023-04-25T14:58:09;5.75;;;3.88;;
10440;SDS011;5268;49.346;9.522;2023-04-25T15:03:13;4.85;;;3.50;;
10440;SDS011;5268;49.346;9.522;2023-04-25T15:08:16;5.82;;;3.97;;
10440;SDS011;5268;49.346;9.522;2023-04-25T15:13:18;4.80;;;3.50;;
10440;SDS011;5268;49.346;9.522;2023-04-25T15:18:22;4.90;;;3.72;;
10440;SDS011;5268;49.346;9.522;2023-04-25T15:23:25;5.97;;;3.50;;
10440;SDS011;5268;49.346;9.522;2023-04-25T15:28:27;6.25;;;3.80;;
10440;SDS011;5268;49.346;9.522;2023-04-25T15:33:31;5.07;;;3.33;;
10440;SDS011;5268;49.346;9.522;2023-04-25T15:38:33;6.05;;;3.45;;
10440;SDS011;5268;49.346;9.522;2023-04-25T15:43:35;4.93;;;3.30;;
10440;SDS011;5268;49.346;9.522;2023-04-25T15:48:39;5.68;;;3.90;;
10440;SDS011;5268;49.346;9.522;2023-04-25T15:53:41;5.75;;;3.45;;
10440;SDS011;5268;49.346;9.522;2023-04-25T15:58:43;6.43;;;5.03;;
10440;SDS011;5268;49.346;9.522;2023-04-25T16:03:46;5.20;;;3.38;;
10440;SDS011;5268;49.346;9.522;2023-04-25T16:08:49;5.50;;;3.92;;
10440;SDS011;5268;49.346;9.522;2023-04-25T16:13:51;5.10;;;3.33;;
10440;SDS011;5268;49.346;9.522;2023-04-25T16:18:55;5.03;;;3.47;;
10440;SDS011;5268;49.346;9.522;2023-04-25T16:23:57;6.90;;;3.22;;
10440;SDS011;5268;49.346;9.522;2023-04-25T16:29:01;3.97;;;3.22;;
10440;SDS011;5268;49.346;9.522;2023-04-25T16:34:05;4.85;;;3.28;;
10440;SDS011;5268;49.346;9.522;2023-04-25T16:39:07;7.20;;;3.70;;
10440;SDS011;5268;49.346;9.522;2023-04-25T16:44:09;6.60;;;3.70;;
10440;SDS011;5268;49.346;9.522;2023-04-25T16:49:13;5.97;;;3.13;;
10440;SDS011;5268;49.346;9.522;2023-04-25T16:54:16;6.25;;;3.42;;
10440;SDS011;5268;49.346;9.522;2023-04-25T16:59:18;5.35;;;3.25;;
10440;SDS011;5268;49.346;9.522;2023-04-25T17:04:21;6.25;;;3.40;;
10440;SDS011;5268;49.346;9.522;2023-04-25T17:09:23;6.65;;;3.35;;
10440;SDS011;5268;49.346;9.522;2023-04-25T17:14:26;4.88;;;3.30;;
10440;SDS011;5268;49.346;9.522;2023-04-25T17:19:29;7.78;;;3.40;;
10440;SDS011;5268;49.346;9.522;2023-04-25T17:24:31;4.93;;;3.30;;
10440;SDS011;5268;49.346;9.522;2023-04-25T17:29:33;8.98;;;4.75;;
10440;SDS011;5268;49.346;9.522;2023-04-25T17:34:36;10.07;;;5.50;;
10440;SDS011;5268;49.346;9.522;2023-04-25T17:39:39;4.35;;;3.10;;
10440;SDS011;5268;49.346;9.522;2023-04-25T17:44:41;6.72;;;3.30;;
10440;SDS011;5268;49.346;9.522;2023-04-25T17:49:45;6.68;;;3.38;;
10440;SDS011;5268;49.346;9.522;2023-04-25T17:54:47;6.45;;;3.10;;
10440;SDS011;5268;49.346;9.522;2023-04-25T17:59:49;6.88;;;3.53;;
10440;SDS011;5268;49.346;9.522;2023-04-25T18:04:53;6.30;;;3.50;;
10440;SDS011;5268;49.346;9.522;2023-04-25T18:09:56;6.07;;;3.35;;
10440;SDS011;5268;49.346;9.522;2023-04-25T18:14:59;4.32;;;3.03;;
10440;SDS011;5268;49.346;9.522;2023-04-25T18:20:03;5.90;;;3.15;;
10440;SDS011;5268;49.346;9.522;2023-04-25T18:25:07;5.50;;;2.97;;
10440;SDS011;5268;49.346;9.522;2023-04-25T18:30:11;4.53;;;3.40;;
10440;SDS011;5268;49.346;9.522;2023-04-25T18:35:15;6.32;;;3.20;;
10440;SDS011;5268;49.346;9.522;2023-04-25T18:40:17;5.57;;;2.70;;
10440;SDS011;5268;49.346;9.522;2023-04-25T18:45:19;4.80;;;2.75;;
10440;SDS011;5268;49.346;9.522;2023-04-25T18:50:23;5.68;;;3.10;;
10440;SDS011;5268;49.346;9.522;2023-04-25T18:55:25;8.30;;;4.45;;
10440;SDS011;5268;49.346;9.522;2023-04-25T19:00:29;4.38;;;3.15;;
10440;SDS011;5268;49.346;9.522;2023-04-25T19:05:33;5.60;;;4.20;;
10440;SDS011;5268;49.346;9.522;2023-04-25T19:10:35;5.38;;;3.15;;
10440;SDS011;5268;49.346;9.522;2023-04-25T19:15:37;4.00;;;2.60;;
10440;SDS011;5268;49.346;9.522;2023-04-25T19:20:40;6.72;;;2.90;;
10440;SDS011;5268;49.346;9.522;2023-04-25T19:25:42;6.55;;;2.80;;
10440;SDS011;5268;49.346;9.522;2023-04-25T19:30:44;5.57;;;3.20;;
10440;SDS011;5268;49.346;9.522;2023-04-25T19:35:48;5.70;;;2.97;;
10440;SDS011;5268;49.346;9.522;2023-04-25T19:40:50;5.65;;;3.13;;
10440;SDS011;5268;49.346;9.522;2023-04-25T19:45:52;5.85;;;3.38;;
10440;SDS011;5268;49.346;9.522;2023-04-25T19:50:56;5.25;;;3.45;;
10440;SDS011;5268;49.346;9.522;2023-04-25T19:55:58;4.82;;;3.17;;
10440;SDS011;5268;49.346;9.522;2023-04-25T20:01:01;8.07;;;3.78;;
10440;SDS011;5268;49.346;9.522;2023-04-25T20:06:05;5.55;;;3.38;;
10440;SDS011;5268;49.346;9.522;2023-04-25T20:11:07;5.22;;;3.10;;
10440;SDS011;5268;49.346;9.522;2023-04-25T20:16:09;7.93;;;4.40;;
10440;SDS011;5268;49.346;9.522;2023-04-25T20:21:13;10.77;;;7.30;;
10440;SDS011;5268;49.346;9.522;2023-04-25T20:26:15;15.48;;;12.82;;
10440;SDS011;5268;49.346;9.522;2023-04-25T20:31:18;13.95;;;7.15;;
10440;SDS011;5268;49.346;9.522;2023-04-25T20:36:22;9.73;;;7.05;;
10440;SDS011;5268;49.346;9.522;2023-04-25T20:41:26;6.43;;;5.05;;
10440;SDS011;5268;49.346;9.522;2023-04-25T20:46:29;5.70;;;4.30;;
10440;SDS011;5268;49.346;9.522;2023-04-25T20:51:33;8.77;;;4.60;;
10440;SDS011;5268;49.346;9.522;2023-04-25T20:56:36;6.75;;;4.22;;
10440;SDS011;5268;49.346;9.522;2023-04-25T21:01:38;6.38;;;4.30;;
10440;SDS011;5268;49.346;9.522;2023-04-25T21:06:41;7.47;;;4.80;;
10440;SDS011;5268;49.346;9.522;2023-04-25T21:11:43;5.93;;;4.60;;
10440;SDS011;5268;49.346;9.522;2023-04-25T21:16:46;6.70;;;4.50;;
10440;SDS011;5268;49.346;9.522;2023-04-25T21:21:50;6.88;;;3.72;;
10440;SDS011;5268;49.346;9.522;2023-04-25T21:26:52;6.50;;;3.95;;
10440;SDS011;5268;49.346;9.522;2023-04-25T21:31:54;6.88;;;4.15;;
10440;SDS011;5268;49.346;9.522;2023-04-25T21:36:58;8.90;;;5.38;;
10440;SDS011;5268;49.346;9.522;2023-04-25T21:42:00;11.82;;;7.60;;
10440;SDS011;5268;49.346;9.522;2023-04-25T21:47:02;14.13;;;8.85;;
10440;SDS011;5268;49.346;9.522;2023-04-25T21:52:06;7.72;;;5.68;;
